Aeroporto :
LOGIN :

Iscrizione | Disclaimer

   EN    FR    IT 

 










Sommario :    VFR   VFR Marginale   IFR   IFR Intensivo   IFR Molto Intensivo
Visibilità : 
Base nubi : 
>= 8 km
>= 3000ft
5 / 8 km
1000 / 3000 ft
1500m / 5 km
500 / 1000 ft
800 / 1500m
200 / 500 ft
< 800m
< 200 ft
Simboli :   Temporali  Nebbia  Neve Forte  Precipitazioni Forti  Vento > 20 kt
SIGMETs :   Varie  Temporali  Ghiacco  Turbolenza  Onda orograficha  Ceneri Vulcaniche






- Altitudine del aeroporto : 2313 ft
- Codice IATA : OHD


LWOH - Ohrid

ULTIMO METAR :
  • 171830Z 00000KT CAVOK 02/M01 Q1024

METARs OBSOLETI :
  • 171800Z 06001KT CAVOK 04/M00 Q1024
  • 171730Z 04001KT CAVOK 04/M00 Q1024
  • 171700Z 36001KT CAVOK 04/01 Q1024
  • 171630Z 05001KT CAVOK 05/02 Q1024
  • 171600Z 00000KT CAVOK 07/02 Q1024

TAF TAF LWOH
Valido dal 17 a 18 ore il 18 a 18 ore UTC


171730Z 1718/1818 VRB02KT CAVOK
BECMG 1808/1810 16006KT FEW050 SCT100



MetMap, La meteo Aeronautica in un colpo d'occhio ! - Copyright ORBIFLY Dicembre 2007 - Disclaimer

ORBIFLY MET'MAP TEAM :

Programmazione e sviluppo : Alexandra Zaïnal
Concezione : Baudouin d'Aumeries
Aiuto per la programmazione : Marc-Olivier Méhu
Supporto tecnico e logistico : Manuel Goepfert
Aiuto per la traduzione : Arnaldo La Scala

Contatto : metmap@orbifly.com




FONTI E CREDITI :

   NOAA